Time;durP1;ratioP1;P1;durP2;ratioP2;P2;SDS_P1;SDS_P2;PMS_P1;PMS_P2;Temp;Humidity;BMP_temperature;BMP_pressure;BME280_temperature;BME280_humidity;BME280_pressure;Samples;Min_cycle;Max_cycle;Signal;HPM_P1;HPM_P2
2022/04/07 00:01:01;;;;;;;1.60;1.50;;;10.40;99.90;;;;;;4922524;29;20048;-92
2022/04/07 00:03:27;;;;;;;3.50;1.30;;;10.40;99.90;;;;;;4924707;29;20032;-93
2022/04/07 00:05:53;;;;;;;1.15;1.08;;;10.40;99.90;;;;;;4926080;29;20039;-92
2022/04/07 00:08:18;;;;;;;1.20;1.10;;;10.50;99.90;;;;;;4923267;29;20500;-92
2022/04/07 00:10:46;;;;;;;1.15;1.00;;;10.50;99.90;;;;;;4935362;29;20062;-91
2022/04/07 00:13:12;;;;;;;1.05;1.05;;;10.50;99.90;;;;;;4922452;29;20043;-92
2022/04/07 00:15:37;;;;;;;0.90;0.90;;;10.50;99.90;;;;;;4917620;29;20032;-92
2022/04/07 00:18:04;;;;;;;1.02;1.02;;;10.60;99.90;;;;;;4920161;29;20419;-91
2022/04/07 00:20:30;;;;;;;1.15;1.10;;;10.50;99.90;;;;;;4932407;29;20120;-89
2022/04/07 00:22:57;;;;;;;0.93;0.90;;;10.60;99.90;;;;;;4930820;29;20087;-92
2022/04/07 00:25:25;;;;;;;1.23;1.13;;;10.60;99.90;;;;;;4925432;29;20079;-91
2022/04/07 00:27:51;;;;;;;1.83;1.20;;;10.60;99.90;;;;;;4929297;29;20590;-92
2022/04/07 00:30:20;;;;;;;1.65;0.98;;;10.60;99.90;;;;;;4927676;29;20055;-91
2022/04/07 00:32:46;;;;;;;1.30;0.95;;;10.60;99.90;;;;;;4921804;29;20043;-91
2022/04/07 00:35:12;;;;;;;2.08;1.00;;;10.60;99.90;;;;;;4925946;29;20124;-92
2022/04/07 00:37:38;;;;;;;0.90;0.90;;;10.60;99.90;;;;;;4932532;29;20508;-91
2022/04/07 00:40:06;;;;;;;0.90;0.90;;;10.60;99.90;;;;;;4935139;29;20111;-92
2022/04/07 00:42:32;;;;;;;1.20;1.10;;;10.60;99.90;;;;;;4915444;29;20059;-91
2022/04/07 00:44:58;;;;;;;1.00;1.00;;;10.60;99.90;;;;;;4925541;29;20039;-92
2022/04/07 00:47:30;;;;;;;1.02;0.93;;;10.60;99.90;;;;;;4934347;29;20078;-91
2022/04/07 00:49:55;;;;;;;1.20;1.20;;;10.60;99.90;;;;;;4935898;29;20555;-91
2022/04/07 00:52:22;;;;;;;2.17;0.80;;;10.50;99.90;;;;;;4930416;29;20090;-91
2022/04/07 00:54:48;;;;;;;2.50;0.77;;;10.50;99.90;;;;;;4934521;29;20026;-91
2022/04/07 00:57:15;;;;;;;1.83;0.80;;;10.50;99.90;;;;;;4936323;29;20028;-92
2022/04/07 00:59:41;;;;;;;1.13;0.98;;;10.50;99.90;;;;;;4953623;28;20033;-92
2022/04/07 01:02:09;;;;;;;3.92;1.10;;;10.40;99.90;;;;;;4955758;28;21143;-92
2022/04/07 01:04:35;;;;;;;1.20;1.10;;;10.40;99.90;;;;;;4951479;28;20059;-93
2022/04/07 01:07:01;;;;;;;1.30;1.00;;;10.40;99.90;;;;;;4938892;28;20115;-92
2022/04/07 01:09:28;;;;;;;0.80;0.80;;;10.40;99.90;;;;;;4918021;29;20119;-92
2022/04/07 01:11:55;;;;;;;2.35;1.00;;;10.40;99.90;;;;;;4921836;29;20057;-91
2022/04/07 01:14:21;;;;;;;1.60;0.95;;;10.40;99.90;;;;;;4949029;29;20115;-92
2022/04/07 01:16:47;;;;;;;0.70;0.70;;;10.40;99.90;;;;;;4921991;29;20109;-91
2022/04/07 01:19:12;;;;;;;1.23;0.80;;;10.30;99.90;;;;;;4931771;29;20086;-91
2022/04/07 01:21:38;;;;;;;1.38;1.05;;;10.40;99.90;;;;;;4911336;29;20023;-91
2022/04/07 01:24:08;;;;;;;1.08;0.80;;;10.30;99.90;;;;;;4921951;29;20034;-91
2022/04/07 01:26:45;;;;;;;1.02;0.90;;;10.30;99.90;;;;;;4921069;29;20127;-91
2022/04/07 01:29:25;;;;;;;1.70;0.90;;;10.30;99.90;;;;;;4931573;29;20066;-92
2022/04/07 01:31:51;;;;;;;2.40;0.98;;;10.30;99.90;;;;;;4932622;29;20072;-91
2022/04/07 01:34:18;;;;;;;0.70;0.70;;;10.30;99.90;;;;;;4925102;29;20480;-92
2022/04/07 01:36:46;;;;;;;0.95;0.77;;;10.30;99.90;;;;;;4928573;29;20035;-92
2022/04/07 01:39:14;;;;;;;1.52;0.75;;;10.30;99.90;;;;;;4929690;29;20028;-91
2022/04/07 01:41:43;;;;;;;1.13;1.05;;;10.30;99.90;;;;;;4924654;29;20024;-91
2022/04/07 01:44:10;;;;;;;1.60;0.90;;;10.30;99.90;;;;;;4926048;29;20032;-91
2022/04/07 01:46:37;;;;;;;0.60;0.60;;;10.30;99.90;;;;;;4925859;29;20146;-93
2022/04/07 01:49:03;;;;;;;1.08;0.77;;;10.30;99.90;;;;;;4923848;29;20417;-92
2022/04/07 01:51:33;;;;;;;0.80;0.80;;;10.30;99.90;;;;;;4925052;29;20504;-91
2022/04/07 01:53:59;;;;;;;1.25;0.82;;;10.20;99.90;;;;;;4927993;29;20031;-91
2022/04/07 01:56:24;;;;;;;0.90;0.90;;;10.20;99.90;;;;;;4934679;29;20054;-92
2022/04/07 01:58:51;;;;;;;0.63;0.63;;;10.10;99.90;;;;;;4927842;29;20392;-92
2022/04/07 02:01:16;;;;;;;1.02;0.90;;;10.10;99.90;;;;;;4932815;29;20342;-91
2022/04/07 02:03:45;;;;;;;1.80;0.70;;;10.00;99.90;;;;;;4925512;29;20051;-91
2022/04/07 02:06:18;;;;;;;0.70;0.70;;;10.00;99.90;;;;;;4930290;29;20032;-91
2022/04/07 02:08:44;;;;;;;0.80;0.80;;;10.00;99.90;;;;;;4921402;29;20609;-92
2022/04/07 02:11:11;;;;;;;1.33;0.90;;;10.00;99.90;;;;;;4929640;29;20039;-91
2022/04/07 02:13:38;;;;;;;0.85;0.82;;;10.00;99.90;;;;;;4928272;29;20119;-92
2022/04/07 02:16:08;;;;;;;2.05;0.70;;;9.90;99.90;;;;;;4929643;29;20023;-91
2022/04/07 02:18:36;;;;;;;0.77;0.77;;;9.90;99.90;;;;;;4930463;29;20119;-91
2022/04/07 02:21:03;;;;;;;0.70;0.65;;;9.90;99.90;;;;;;4944888;29;20028;-91
2022/04/07 02:23:29;;;;;;;1.95;0.95;;;9.80;99.90;;;;;;4932069;29;20031;-92
2022/04/07 02:25:54;;;;;;;1.65;0.75;;;9.80;99.90;;;;;;4933867;29;20051;-91
2022/04/07 02:28:20;;;;;;;1.55;1.10;;;9.80;99.90;;;;;;4920279;29;20028;-92
2022/04/07 02:30:47;;;;;;;1.50;0.90;;;9.80;99.90;;;;;;4931674;29;20167;-91
2022/04/07 02:33:13;;;;;;;0.80;0.80;;;9.80;99.90;;;;;;4922756;29;20035;-91
2022/04/07 02:35:40;;;;;;;1.27;0.77;;;9.80;99.90;;;;;;4920717;29;21269;-91
2022/04/07 02:38:06;;;;;;;0.55;0.55;;;9.80;99.90;;;;;;4927412;29;20031;-92
2022/04/07 02:40:31;;;;;;;0.98;0.80;;;9.80;99.90;;;;;;4937174;29;20035;-92
2022/04/07 02:42:57;;;;;;;1.55;0.60;;;9.80;99.90;;;;;;4924428;29;20044;-91
2022/04/07 02:45:22;;;;;;;0.50;0.50;;;9.80;99.90;;;;;;4931315;29;20154;-93
2022/04/07 02:47:48;;;;;;;0.50;0.50;;;9.90;99.90;;;;;;4928981;29;20142;-92
2022/04/07 02:50:16;;;;;;;4.22;0.65;;;9.90;99.90;;;;;;4922562;29;20088;-92
2022/04/07 02:52:45;;;;;;;0.50;0.50;;;9.90;99.90;;;;;;4931660;29;20028;-92
2022/04/07 02:55:11;;;;;;;0.90;0.68;;;9.90;99.90;;;;;;4923912;29;20496;-92
2022/04/07 02:57:46;;;;;;;0.60;0.60;;;9.90;99.90;;;;;;4932063;29;20031;-92
2022/04/07 03:00:13;;;;;;;0.60;0.60;;;10.00;99.90;;;;;;4924906;29;20522;-91
2022/04/07 03:02:50;;;;;;;0.68;0.68;;;10.00;99.90;;;;;;4927536;29;20044;-92
2022/04/07 03:05:27;;;;;;;0.40;0.40;;;10.00;99.90;;;;;;4929434;29;20035;-91
2022/04/07 03:07:59;;;;;;;0.63;0.63;;;9.90;99.90;;;;;;4928372;29;20059;-91
2022/04/07 03:10:25;;;;;;;0.88;0.63;;;9.90;99.90;;;;;;4934745;29;20035;-92
2022/04/07 03:12:51;;;;;;;0.70;0.68;;;9.90;99.90;;;;;;4920382;29;20319;-91
2022/04/07 03:15:17;;;;;;;1.65;0.70;;;9.90;99.90;;;;;;4929286;29;20024;-92
2022/04/07 03:17:45;;;;;;;0.43;0.43;;;9.90;99.90;;;;;;4916155;29;20036;-91
2022/04/07 03:20:11;;;;;;;1.85;0.68;;;9.90;99.90;;;;;;4925664;29;20036;-92
2022/04/07 03:22:37;;;;;;;1.98;0.63;;;9.90;99.90;;;;;;4921579;29;20097;-91
2022/04/07 03:25:03;;;;;;;3.03;0.60;;;10.00;99.90;;;;;;4927854;29;20364;-90
2022/04/07 03:27:28;;;;;;;1.60;0.60;;;9.90;99.90;;;;;;4935446;29;20035;-91
2022/04/07 03:29:54;;;;;;;1.10;0.60;;;9.90;99.90;;;;;;4933607;29;20028;-91
2022/04/07 03:32:19;;;;;;;0.68;0.68;;;9.90;99.90;;;;;;4924095;29;20401;-91
2022/04/07 03:34:48;;;;;;;0.80;0.80;;;9.80;99.90;;;;;;4929143;29;20032;-91
2022/04/07 03:37:14;;;;;;;1.70;0.90;;;9.80;99.90;;;;;;4933897;29;20107;-91
2022/04/07 03:39:40;;;;;;;0.57;0.50;;;9.80;99.90;;;;;;4931204;29;20035;-91
2022/04/07 03:42:06;;;;;;;1.85;0.82;;;9.70;99.90;;;;;;4930054;29;20027;-90
2022/04/07 03:44:32;;;;;;;1.25;0.60;;;9.70;99.90;;;;;;4934259;29;20031;-91
2022/04/07 03:46:58;;;;;;;2.45;0.80;;;9.70;99.90;;;;;;4930464;29;20152;-91
2022/04/07 03:49:24;;;;;;;1.35;0.80;;;9.70;99.90;;;;;;4932559;29;20056;-91
2022/04/07 03:51:50;;;;;;;1.02;0.90;;;9.70;99.90;;;;;;4927787;29;20107;-91
2022/04/07 03:54:17;;;;;;;1.13;0.90;;;9.60;99.90;;;;;;4931217;29;20032;-91
2022/04/07 03:56:44;;;;;;;1.13;0.90;;;9.60;99.90;;;;;;4922665;29;20035;-91
2022/04/07 03:59:10;;;;;;;1.65;0.90;;;9.60;99.90;;;;;;4937283;29;20028;-91
2022/04/07 04:01:35;;;;;;;0.90;0.90;;;9.60;99.90;;;;;;4935103;29;20024;-91
2022/04/07 04:04:04;;;;;;;1.23;0.90;;;9.50;99.90;;;;;;4934397;29;20063;-91
2022/04/07 04:06:29;;;;;;;1.00;1.00;;;9.60;99.90;;;;;;4951669;28;20015;-92
2022/04/07 04:08:55;;;;;;;1.20;1.08;;;9.50;99.90;;;;;;4949280;28;20052;-93
2022/04/07 04:11:21;;;;;;;2.88;1.10;;;9.50;99.90;;;;;;4956369;28;20052;-94
2022/04/07 04:13:55;;;;;;;1.00;1.00;;;9.50;99.90;;;;;;4953832;28;20048;-93
2022/04/07 04:16:21;;;;;;;2.13;0.90;;;9.40;99.90;;;;;;4955657;28;20027;-93
2022/04/07 04:18:52;;;;;;;0.90;0.90;;;9.50;99.90;;;;;;4959587;28;20113;-93
2022/04/07 04:21:18;;;;;;;1.00;0.90;;;9.50;99.90;;;;;;4943344;28;20039;-91
2022/04/07 04:23:43;;;;;;;1.20;1.10;;;9.50;99.90;;;;;;4950659;28;20056;-92
2022/04/07 04:26:09;;;;;;;1.35;1.00;;;9.40;99.90;;;;;;4948928;28;20019;-92
2022/04/07 04:28:35;;;;;;;2.92;1.27;;;9.40;99.90;;;;;;4952743;28;20124;-92
2022/04/07 04:31:00;;;;;;;1.58;1.00;;;9.50;99.90;;;;;;4955256;28;20028;-93
2022/04/07 04:33:26;;;;;;;1.20;1.10;;;9.40;99.90;;;;;;4951464;28;20031;-93
2022/04/07 04:35:54;;;;;;;1.77;0.80;;;9.40;99.90;;;;;;4951913;28;20040;-93
2022/04/07 04:38:19;;;;;;;1.90;0.88;;;9.50;99.90;;;;;;4946786;28;20103;-92
2022/04/07 04:40:45;;;;;;;1.40;0.73;;;9.50;99.90;;;;;;4931437;29;20028;-92
2022/04/07 04:43:11;;;;;;;4.47;0.95;;;9.50;99.90;;;;;;4936438;29;20038;-91
2022/04/07 04:45:36;;;;;;;1.17;0.80;;;9.50;99.90;;;;;;4927127;29;20026;-92
2022/04/07 04:48:02;;;;;;;0.77;0.70;;;9.50;99.90;;;;;;4935629;29;20044;-91
2022/04/07 04:50:28;;;;;;;0.93;0.90;;;9.50;99.90;;;;;;4936424;29;20036;-91
2022/04/07 04:52:54;;;;;;;1.00;0.98;;;9.50;99.90;;;;;;4934496;29;20518;-91
2022/04/07 04:55:20;;;;;;;1.45;0.82;;;9.50;99.90;;;;;;4940645;29;20024;-91
2022/04/07 04:57:45;;;;;;;0.70;0.70;;;9.60;99.90;;;;;;4938308;29;20030;-92
2022/04/07 05:00:12;;;;;;;1.48;0.75;;;9.60;99.90;;;;;;4932715;29;20027;-92
2022/04/07 05:02:39;;;;;;;1.23;0.70;;;9.60;99.90;;;;;;4933529;29;20544;-92
2022/04/07 05:05:06;;;;;;;1.90;1.02;;;9.60;99.90;;;;;;4933329;29;20524;-94
2022/04/07 05:07:32;;;;;;;0.75;0.70;;;9.60;99.90;;;;;;4935301;29;20023;-92
2022/04/07 05:10:03;;;;;;;2.20;0.80;;;9.70;99.90;;;;;;4939644;29;20036;-93
2022/04/07 05:12:28;;;;;;;0.80;0.80;;;9.60;99.90;;;;;;4935771;29;20060;-91
2022/04/07 05:14:54;;;;;;;1.77;0.63;;;9.60;99.90;;;;;;4924309;29;20043;-90
2022/04/07 05:17:20;;;;;;;3.45;1.88;;;9.60;99.90;;;;;;4921709;29;20433;-91
2022/04/07 05:19:46;;;;;;;1.25;0.50;;;9.70;99.90;;;;;;4927929;29;20063;-92
2022/04/07 05:22:12;;;;;;;0.73;0.50;;;9.70;99.90;;;;;;4933313;29;20476;-91
2022/04/07 05:24:37;;;;;;;1.55;0.60;;;9.70;99.90;;;;;;4929224;29;20125;-91
2022/04/07 05:27:03;;;;;;;0.50;0.50;;;9.70;99.90;;;;;;4919518;29;20052;-92
2022/04/07 05:29:29;;;;;;;0.80;0.80;;;9.70;99.90;;;;;;4931086;29;20032;-92
2022/04/07 05:31:54;;;;;;;1.38;0.80;;;9.80;99.90;;;;;;4925259;29;20051;-92
2022/04/07 05:34:20;;;;;;;4.65;2.63;;;9.80;99.90;;;;;;4930456;29;20043;-93
2022/04/07 05:36:46;;;;;;;0.60;0.60;;;9.80;99.90;;;;;;4921827;29;20033;-92
2022/04/07 05:39:13;;;;;;;1.75;0.80;;;9.80;99.90;;;;;;4942945;28;20048;-90
2022/04/07 05:41:39;;;;;;;0.95;0.60;;;9.90;99.90;;;;;;4942420;28;20023;-93
2022/04/07 05:44:05;;;;;;;1.02;0.63;;;9.90;99.90;;;;;;4942064;29;20066;-91
2022/04/07 05:46:31;;;;;;;0.70;0.50;;;9.90;99.90;;;;;;4967872;28;20016;-92
2022/04/07 05:48:56;;;;;;;1.55;0.70;;;9.90;99.90;;;;;;4931286;29;20562;-91
2022/04/07 05:51:22;;;;;;;0.85;0.60;;;9.90;99.90;;;;;;4933079;29;20091;-91
2022/04/07 05:53:48;;;;;;;2.17;0.73;;;10.00;99.90;;;;;;4947750;28;20027;-93
2022/04/07 05:56:16;;;;;;;0.60;0.60;;;10.00;99.90;;;;;;4924870;29;20024;-92
2022/04/07 05:58:42;;;;;;;1.70;0.60;;;9.90;99.90;;;;;;4929455;29;20102;-92
2022/04/07 06:01:07;;;;;;;3.22;1.00;;;10.00;99.90;;;;;;4916405;29;20245;-92
2022/04/07 06:03:34;;;;;;;0.65;0.50;;;10.10;99.90;;;;;;4910647;29;20038;-91
2022/04/07 06:05:59;;;;;;;0.90;0.60;;;10.20;99.90;;;;;;4930770;29;20035;-91
2022/04/07 06:08:25;;;;;;;0.52;0.52;;;10.20;99.90;;;;;;4935106;29;20046;-91
2022/04/07 06:10:50;;;;;;;0.90;0.75;;;10.30;99.90;;;;;;4935331;29;20032;-91
2022/04/07 06:13:16;;;;;;;1.00;0.80;;;10.30;99.90;;;;;;4931756;29;20519;-91
2022/04/07 06:15:42;;;;;;;0.40;0.40;;;10.40;99.90;;;;;;4922769;29;20019;-91
2022/04/07 06:18:08;;;;;;;1.40;0.63;;;10.50;99.90;;;;;;4934530;29;20032;-92
2022/04/07 06:20:33;;;;;;;1.55;0.52;;;10.50;99.90;;;;;;4932598;29;20048;-92
2022/04/07 06:23:39;;;;;;;0.43;0.43;;;10.70;99.90;;;;;;4935121;29;20031;-94
2022/04/07 06:26:17;;;;;;;1.52;0.60;;;10.80;99.90;;;;;;5194353;23;20143;-93
2022/04/07 06:28:52;;;;;;;0.65;0.52;;;10.90;99.90;;;;;;4948923;29;20024;-93
2022/04/07 06:38:04;;;;;;;2.13;0.52;;;11.20;99.90;;;;;;4954469;29;20028;-92
2022/04/07 06:40:30;;;;;;;0.70;0.50;;;11.30;99.90;;;;;;4946144;29;20024;-92
2022/04/07 06:42:58;;;;;;;1.02;0.50;;;11.40;99.90;;;;;;4919925;29;20030;-91
2022/04/07 06:45:27;;;;;;;0.85;0.40;;;11.40;99.90;;;;;;4919766;29;20039;-91
2022/04/07 06:50:26;;;;;;;0.57;0.57;;;11.40;99.90;;;;;;4940099;29;20575;-91
2022/04/07 06:52:53;;;;;;;0.30;0.30;;;11.40;99.90;;;;;;4949543;29;20035;-91
2022/04/07 06:55:32;;;;;;;0.30;0.30;;;11.30;99.90;;;;;;4944683;29;20129;-93
2022/04/07 06:58:12;;;;;;;0.40;0.40;;;11.40;99.90;;;;;;4955138;28;20063;-94
2022/04/07 07:00:48;;;;;;;0.43;0.40;;;11.30;99.90;;;;;;4946895;29;20040;-92
2022/04/07 07:03:15;;;;;;;0.40;0.40;;;11.30;99.90;;;;;;4941727;28;20027;-92
2022/04/07 07:05:41;;;;;;;0.30;0.30;;;11.30;99.90;;;;;;4944944;29;20035;-91
2022/04/07 07:08:22;;;;;;;0.75;0.40;;;11.30;99.90;;;;;;4937181;29;20067;-92
2022/04/07 07:10:56;;;;;;;0.40;0.40;;;11.30;99.90;;;;;;4940690;29;20035;-92
2022/04/07 07:13:25;;;;;;;2.08;0.45;;;11.30;99.90;;;;;;4938325;29;20109;-92
2022/04/07 07:16:00;;;;;;;0.50;0.50;;;11.30;99.90;;;;;;4939089;29;20027;-92
2022/04/07 07:18:42;;;;;;;3.42;0.40;;;11.30;99.90;;;;;;4941942;29;20035;-92
2022/04/07 07:21:18;;;;;;;0.38;0.38;;;11.30;99.90;;;;;;4945492;29;20087;-93
2022/04/07 07:23:50;;;;;;;1.70;0.50;;;11.30;99.90;;;;;;4944236;29;20062;-92
2022/04/07 07:26:28;;;;;;;;;;;11.30;99.90;;;;;;4946441;29;20043;-92
2022/04/07 07:29:06;;;;;;;0.90;0.30;;;11.30;99.90;;;;;;4947017;29;19957;-93
2022/04/07 07:32:44;;;;;;;0.52;0.40;;;11.30;99.90;;;;;;4949507;28;20504;-93
2022/04/07 07:35:04;;;;;;;0.40;0.30;;;11.40;99.90;;;;;;4963203;29;20035;-94
2022/04/07 10:18:17;;;;;;;1.08;0.40;;;12.00;99.90;;;;;;672829;23;21606;-88
2022/04/07 10:20:47;;;;;;;1.02;0.75;;;11.90;99.90;;;;;;4920616;29;20497;-90
2022/04/07 10:23:48;;;;;;;0.65;0.63;;;11.80;99.90;;;;;;4917590;29;20020;-93
2022/04/07 10:26:16;;;;;;;0.50;0.50;;;11.70;99.90;;;;;;4902588;29;20460;-91
2022/04/07 10:28:41;;;;;;;0.65;0.50;;;11.70;99.90;;;;;;4895144;29;20030;-89
2022/04/07 10:31:17;;;;;;;0.40;0.40;;;11.70;99.90;;;;;;4909542;29;20039;-92
2022/04/07 10:33:46;;;;;;;0.30;0.30;;;11.70;99.90;;;;;;4906395;29;20035;-92
2022/04/07 10:36:23;;;;;;;0.47;0.45;;;11.70;99.90;;;;;;4910333;29;20017;-91
2022/04/07 10:38:51;;;;;;;0.75;0.40;;;11.80;99.90;;;;;;4912148;29;20111;-91
2022/04/07 10:41:35;;;;;;;0.65;0.40;;;11.90;99.90;;;;;;4880931;29;20029;-91
2022/04/07 10:44:20;;;;;;;0.50;0.50;;;12.00;99.90;;;;;;4895870;29;20516;-90
2022/04/07 10:46:46;;;;;;;0.30;0.30;;;12.00;99.90;;;;;;4913292;29;20028;-91
2022/04/07 10:49:19;;;;;;;0.85;0.40;;;12.10;99.90;;;;;;4898993;29;20036;-91
2022/04/07 10:51:53;;;;;;;0.57;0.35;;;12.20;99.90;;;;;;4894093;29;20025;-90
2022/04/07 10:54:21;;;;;;;0.40;0.40;;;12.30;99.90;;;;;;4890127;29;20032;-91
2022/04/07 10:56:52;;;;;;;0.50;0.30;;;12.30;99.90;;;;;;4901440;29;20504;-91
2022/04/07 10:59:20;;;;;;;1.02;0.40;;;12.40;99.90;;;;;;4902055;29;20032;-92
2022/04/07 11:01:46;;;;;;;1.40;0.50;;;12.60;99.90;;;;;;4904429;29;20020;-92
2022/04/07 11:04:20;;;;;;;0.57;0.30;;;12.70;99.90;;;;;;4901224;29;20578;-91
2022/04/07 11:07:05;;;;;;;0.57;0.20;;;12.90;99.90;;;;;;4903439;29;20036;-92
2022/04/07 11:09:49;;;;;;;0.50;0.30;;;12.90;99.90;;;;;;4901074;29;20071;-92
2022/04/07 11:12:28;;;;;;;1.17;0.40;;;13.00;99.90;;;;;;4895329;29;20036;-90
2022/04/07 11:15:03;;;;;;;0.35;0.35;;;12.90;99.90;;;;;;4906545;29;20036;-90
2022/04/07 11:17:41;;;;;;;1.38;0.32;;;12.90;99.90;;;;;;4907728;29;20386;-90
2022/04/07 11:20:16;;;;;;;2.83;0.43;;;12.90;99.90;;;;;;4890679;29;20116;-89
2022/04/07 11:22:52;;;;;;;1.58;0.38;;;12.90;99.90;;;;;;4914905;29;20099;-88
2022/04/07 11:25:29;;;;;;;0.20;0.20;;;12.90;99.90;;;;;;4898043;29;20079;-89
2022/04/07 11:28:10;;;;;;;2.47;0.30;;;13.00;99.90;;;;;;4908496;29;20035;-89
2022/04/07 11:30:40;;;;;;;0.20;0.20;;;13.00;99.90;;;;;;4879173;29;20512;-88
2022/04/07 11:33:27;;;;;;;2.17;0.40;;;13.00;99.90;;;;;;4908968;29;20484;-88
2022/04/07 11:35:58;;;;;;;0.85;0.50;;;13.10;99.90;;;;;;4892874;29;20040;-88
2022/04/07 11:38:38;;;;;;;0.20;0.20;;;13.30;99.90;;;;;;4890437;29;20025;-86
2022/04/07 11:41:08;;;;;;;0.55;0.45;;;13.40;99.90;;;;;;4893593;29;20056;-86
2022/04/07 11:43:38;;;;;;;2.15;0.30;;;13.50;99.90;;;;;;4903582;29;20095;-86
2022/04/07 11:46:04;;;;;;;0.32;0.32;;;13.60;99.90;;;;;;4903995;29;20087;-91
2022/04/07 11:48:32;;;;;;;1.08;0.30;;;13.50;99.90;;;;;;4893648;29;20068;-91
2022/04/07 11:51:01;;;;;;;2.42;0.30;;;13.50;99.90;;;;;;4895265;29;20557;-89
2022/04/07 11:53:27;;;;;;;0.40;0.40;;;13.50;99.90;;;;;;4908532;29;20115;-88
2022/04/07 11:55:54;;;;;;;0.35;0.25;;;13.50;99.90;;;;;;4920820;29;20036;-89
2022/04/07 11:58:19;;;;;;;1.08;0.28;;;13.50;99.90;;;;;;4911553;29;20091;-90
2022/04/07 12:00:45;;;;;;;0.25;0.20;;;13.70;99.90;;;;;;4887762;29;20247;-90
2022/04/07 12:03:11;;;;;;;0.30;0.30;;;13.80;99.70;;;;;;4898166;29;20038;-90
2022/04/07 12:05:40;;;;;;;0.60;0.20;;;13.90;99.30;;;;;;4910458;29;20489;-89
2022/04/07 12:08:15;;;;;;;0.30;0.30;;;14.00;98.90;;;;;;4914632;29;20052;-90
2022/04/07 12:10:46;;;;;;;1.52;0.20;;;14.00;98.40;;;;;;4898020;29;20043;-89
2022/04/07 12:13:12;;;;;;;0.45;0.30;;;14.20;98.20;;;;;;4889339;29;20032;-90
2022/04/07 12:15:38;;;;;;;0.57;0.57;;;14.30;98.10;;;;;;4888103;29;20051;-89
2022/04/07 12:18:08;;;;;;;3.10;0.20;;;14.30;98.10;;;;;;4905179;29;20028;-88
2022/04/07 12:20:35;;;;;;;0.30;0.30;;;14.30;98.20;;;;;;4909053;29;20056;-88
2022/04/07 12:23:14;;;;;;;2.05;0.30;;;14.20;97.70;;;;;;4917766;29;20028;-88
2022/04/07 12:25:42;;;;;;;0.90;0.30;;;14.20;97.50;;;;;;4911161;29;20057;-88
2022/04/07 12:28:12;;;;;;;0.20;0.20;;;14.10;97.20;;;;;;4915977;29;20032;-90
2022/04/07 12:30:48;;;;;;;0.35;0.20;;;14.00;97.60;;;;;;4913552;29;20028;-88
2022/04/07 12:33:43;;;;;;;1.10;0.30;;;14.00;97.40;;;;;;4913915;29;20116;-90
2022/04/07 12:36:37;;;;;;;0.30;0.30;;;13.90;97.50;;;;;;4883792;29;20091;-89
2022/04/07 12:39:10;;;;;;;0.35;0.20;;;13.90;97.60;;;;;;4910801;29;20056;-88
2022/04/07 12:41:36;;;;;;;0.28;0.28;;;13.80;97.80;;;;;;4894976;29;20028;-90
2022/04/07 12:44:02;;;;;;;0.20;0.20;;;13.80;98.10;;;;;;4894746;29;20509;-90
2022/04/07 12:46:45;;;;;;;4.20;0.32;;;13.70;98.20;;;;;;4897996;29;20032;-90
2022/04/07 12:49:11;;;;;;;1.38;0.30;;;13.60;98.50;;;;;;4900046;29;20024;-88
2022/04/07 12:51:38;;;;;;;1.40;0.22;;;13.50;98.90;;;;;;4895464;29;20032;-89
2022/04/07 12:54:11;;;;;;;0.30;0.30;;;13.30;99.50;;;;;;4896585;29;20033;-88
2022/04/07 12:56:38;;;;;;;0.30;0.30;;;13.20;99.90;;;;;;4900032;29;20032;-90
2022/04/07 12:59:21;;;;;;;2.92;0.60;;;13.10;99.90;;;;;;4895426;29;20081;-90
2022/04/07 13:01:54;;;;;;;2.38;0.20;;;13.00;99.90;;;;;;4913263;29;20024;-89
2022/04/07 13:04:20;;;;;;;0.20;0.20;;;13.00;99.90;;;;;;4899305;29;20032;-87
2022/04/07 13:06:46;;;;;;;3.83;0.40;;;13.10;99.90;;;;;;4907897;29;20064;-87
2022/04/07 13:09:12;;;;;;;1.30;0.38;;;13.10;99.90;;;;;;4915784;29;20104;-86
2022/04/07 13:11:40;;;;;;;0.38;0.38;;;13.20;99.90;;;;;;4913338;29;20028;-88
2022/04/07 13:14:11;;;;;;;2.00;0.30;;;13.30;99.90;;;;;;4913416;29;20028;-87
2022/04/07 13:16:38;;;;;;;0.30;0.30;;;13.30;99.90;;;;;;4912717;29;20021;-87
2022/04/07 13:19:04;;;;;;;3.20;0.30;;;13.40;99.90;;;;;;4910587;29;20112;-86
2022/04/07 13:21:33;;;;;;;1.48;0.20;;;13.40;99.90;;;;;;4895919;29;20111;-83
2022/04/07 13:23:59;;;;;;;1.05;0.30;;;13.50;99.90;;;;;;4915557;29;20035;-85
2022/04/07 13:26:24;;;;;;;0.30;0.30;;;13.50;99.90;;;;;;4895710;29;20032;-85
2022/04/07 13:28:51;;;;;;;0.50;0.20;;;13.50;99.90;;;;;;4895732;29;20032;-84
2022/04/07 13:31:18;;;;;;;0.57;0.30;;;13.50;99.90;;;;;;4908231;29;20112;-85
2022/04/07 13:33:44;;;;;;;0.20;0.20;;;13.50;99.90;;;;;;4880341;29;20032;-88
2022/04/07 13:36:11;;;;;;;0.98;0.40;;;13.60;99.70;;;;;;4913844;29;20032;-87
2022/04/07 13:38:36;;;;;;;1.33;0.30;;;13.60;99.70;;;;;;4909505;29;20020;-86
2022/04/07 13:41:03;;;;;;;0.63;0.50;;;13.60;99.70;;;;;;4886724;29;20036;-86
2022/04/07 13:43:32;;;;;;;0.40;0.20;;;13.50;99.90;;;;;;4897280;29;20410;-87
2022/04/07 13:45:59;;;;;;;0.30;0.30;;;13.60;99.80;;;;;;4885211;29;20043;-87
2022/04/07 13:56:20;;;;;;;0.32;0.20;;;13.50;99.70;;;;;;4928418;29;20070;-89
2022/04/07 13:58:49;;;;;;;0.20;0.20;;;13.50;99.50;;;;;;4927696;29;20122;-89
2022/04/07 14:01:19;;;;;;;0.80;0.30;;;13.60;99.70;;;;;;4933533;29;20413;-92
2022/04/07 14:03:49;;;;;;;2.30;0.28;;;13.60;99.70;;;;;;4921444;29;20056;-91
2022/04/07 14:06:17;;;;;;;0.32;0.32;;;13.50;99.60;;;;;;4927925;29;20046;-90
2022/04/07 14:08:45;;;;;;;0.47;0.47;;;13.50;99.50;;;;;;4932168;29;20032;-90
2022/04/07 14:11:10;;;;;;;0.50;0.50;;;13.50;99.50;;;;;;4931624;28;20105;-90
2022/04/07 14:13:39;;;;;;;0.75;0.30;;;13.50;99.70;;;;;;4935280;29;20476;-90
2022/04/07 14:16:10;;;;;;;0.22;0.22;;;13.50;99.90;;;;;;4955575;28;20090;-90
2022/04/07 14:18:39;;;;;;;0.25;0.25;;;13.50;99.90;;;;;;4928537;29;20506;-91
2022/04/07 14:21:21;;;;;;;0.30;0.30;;;13.50;99.90;;;;;;4919119;29;20032;-89
2022/04/07 14:24:22;;;;;;;0.55;0.50;;;13.40;99.90;;;;;;4920776;29;20047;-89
2022/04/07 14:26:48;;;;;;;0.40;0.38;;;13.30;99.90;;;;;;4913886;29;20042;-88
2022/04/07 14:29:13;;;;;;;0.88;0.30;;;13.30;99.90;;;;;;4926388;29;20118;-87
2022/04/07 14:31:49;;;;;;;0.40;0.40;;;13.20;99.90;;;;;;4939386;29;20403;-88
2022/04/07 14:34:17;;;;;;;0.43;0.40;;;13.10;99.90;;;;;;4931445;29;20031;-89
2022/04/07 14:36:45;;;;;;;0.30;0.30;;;13.00;99.90;;;;;;4936027;29;20031;-87
2022/04/07 14:39:11;;;;;;;0.40;0.40;;;12.90;99.90;;;;;;4965404;28;20019;-89
2022/04/07 14:41:37;;;;;;;1.48;0.40;;;12.90;99.90;;;;;;4977681;28;20027;-88
2022/04/07 14:44:03;;;;;;;1.38;1.08;;;12.90;99.90;;;;;;4950400;28;20030;-88
2022/04/07 14:46:28;;;;;;;1.90;0.35;;;12.90;99.90;;;;;;4948819;29;20094;-88
2022/04/07 14:48:57;;;;;;;0.47;0.47;;;12.90;99.90;;;;;;4937085;29;20030;-87
2022/04/07 14:51:22;;;;;;;0.45;0.40;;;12.90;99.90;;;;;;4936515;28;20043;-87
2022/04/07 14:53:48;;;;;;;1.00;0.30;;;12.80;99.90;;;;;;4953508;29;20027;-87
2022/04/07 14:56:14;;;;;;;1.45;0.30;;;12.70;99.90;;;;;;4952523;29;20035;-87
2022/04/07 14:58:39;;;;;;;1.13;0.60;;;12.60;99.90;;;;;;4921170;29;20049;-87
2022/04/07 15:01:06;;;;;;;0.30;0.30;;;12.50;99.90;;;;;;4927312;29;20038;-88
2022/04/07 15:03:31;;;;;;;0.30;0.30;;;12.30;99.90;;;;;;4935789;29;20215;-89
2022/04/07 15:05:57;;;;;;;0.68;0.40;;;12.20;99.90;;;;;;4933667;29;20063;-87
2022/04/07 15:08:22;;;;;;;1.10;0.95;;;12.10;99.90;;;;;;4934027;29;20047;-86
2022/04/07 15:10:48;;;;;;;0.82;0.60;;;12.00;99.90;;;;;;4950702;28;20106;-87
2022/04/07 15:13:14;;;;;;;1.08;0.80;;;11.90;99.90;;;;;;4919905;29;20031;-84
2022/04/07 15:15:39;;;;;;;1.48;1.13;;;11.80;99.90;;;;;;4948712;28;20034;-86
2022/04/07 15:18:05;;;;;;;2.08;0.90;;;11.60;99.90;;;;;;4953405;29;20107;-86
2022/04/07 15:20:31;;;;;;;1.35;0.70;;;11.50;99.90;;;;;;4934131;29;20491;-86
2022/04/07 15:22:56;;;;;;;2.55;0.80;;;11.50;99.90;;;;;;4952174;29;20024;-86
2022/04/07 15:25:22;;;;;;;0.98;0.40;;;11.40;99.90;;;;;;4922783;29;20027;-86
2022/04/07 15:27:48;;;;;;;12.45;0.80;;;11.50;99.90;;;;;;4949079;29;20090;-86
2022/04/07 15:30:15;;;;;;;0.30;0.30;;;11.40;99.90;;;;;;4945306;29;20110;-86
2022/04/07 15:32:41;;;;;;;0.68;0.50;;;11.40;99.90;;;;;;4944971;29;20027;-86
2022/04/07 15:35:07;;;;;;;0.60;0.40;;;11.40;99.90;;;;;;4934180;29;20028;-85
2022/04/07 15:37:33;;;;;;;1.33;0.50;;;11.50;99.90;;;;;;4938900;29;20034;-85
2022/04/07 15:40:00;;;;;;;2.65;0.60;;;11.50;99.90;;;;;;4935057;29;20023;-84
2022/04/07 15:42:25;;;;;;;0.43;0.40;;;11.60;99.90;;;;;;4931135;29;20044;-83
2022/04/07 15:44:51;;;;;;;1.10;0.40;;;11.60;99.90;;;;;;4949158;28;20078;-85
2022/04/07 15:47:16;;;;;;;0.70;0.50;;;11.70;99.90;;;;;;4938318;29;20131;-84
2022/04/07 15:49:42;;;;;;;1.00;0.43;;;11.80;99.90;;;;;;4937600;29;20035;-85
2022/04/07 15:52:10;;;;;;;1.02;0.55;;;11.70;99.90;;;;;;4953411;29;20376;-85
2022/04/07 15:54:36;;;;;;;0.60;0.50;;;11.70;99.90;;;;;;4933905;29;20115;-86
2022/04/07 15:57:02;;;;;;;0.73;0.60;;;11.70;99.90;;;;;;4953938;28;20110;-85